Chicago, Illinois
Traffic Map
Current Weather Conditions
Chicago, Illinois
Broken Clouds
Broken Clouds
80°
Feels Like: 82°
Wind Chill: 80° Ceiling: 7000
Heat Index: 82° Visibility: 10mi
Dew Point: 65° Wind: 12mph
Humidity: 60% Direction: 250° (WSW)
Pressure: 29.74in Gusts: 0mph
Raw Report DataKMDW 180053Z 25010KT 10SM FEW042 BKN070 BKN250 27/18 A2974 RMK AO2 SLP062 T02670183
Traffic Incident Summary
Active as of:
Severity:
Category:
InformationThere was an issue retrieving the traffic information for this location. Please try a different location or try again shortly.
Advertisements